EJA337 KARR-KBNA
Flight info
| Callsign | EJA337 |
|---|---|
| Flight time | 1h 1m |
| Altitude | 35000 |
| Route | CARYN8 CYBIL DCT TONES RYYMN3 |
| Aircraft | E55P/M-SBDFGHJ2RWY/LB2 |
Departure
| Time | 2026-05-05 22:16 |
|---|---|
| Airport | Aurora Municipal Airport (KARR) |
Arrival
| Time | 2026-05-05 23:18 |
|---|---|
| Airport | Nashville International Airport (KBNA) |
| Time | Latitude | Longitude | Altitude | Speed | Heading |
|---|---|---|---|---|---|
| 2026-05-05 22:06 | 41.76774 | -88.46918 | 712 ft | 0 kts | 185° |
| 2026-05-05 22:07 | 41.76774 | -88.46917 | 712 ft | 0 kts | 185° |
| 2026-05-05 22:09 | 41.76773 | -88.46917 | 712 ft | 0 kts | 186° |
| 2026-05-05 22:12 | 41.76772 | -88.46918 | 712 ft | 1 kts | 186° |
| 2026-05-05 22:13 | 41.76743 | -88.46934 | 712 ft | 6 kts | 233° |
| 2026-05-05 22:13 | 41.76773 | -88.46968 | 712 ft | 8 kts | 1° |
| 2026-05-05 22:13 | 41.76842 | -88.46957 | 712 ft | 11 kts | 23° |
| 2026-05-05 22:13 | 41.76913 | -88.46895 | 712 ft | 13 kts | 50° |
| 2026-05-05 22:14 | 41.76925 | -88.46762 | 712 ft | 15 kts | 89° |
| 2026-05-05 22:14 | 41.76928 | -88.46602 | 712 ft | 18 kts | 90° |
| 2026-05-05 22:14 | 41.76929 | -88.46416 | 712 ft | 20 kts | 89° |
| 2026-05-05 22:14 | 41.76932 | -88.46217 | 712 ft | 12 kts | 87° |
| 2026-05-05 22:15 | 41.76990 | -88.46162 | 712 ft | 13 kts | 358° |
| 2026-05-05 22:15 | 41.77042 | -88.46193 | 712 ft | 7 kts | 272° |
| 2026-05-05 22:15 | 41.77039 | -88.46559 | 712 ft | 78 kts | 269° |
| 2026-05-05 22:15 | 41.77025 | -88.47573 | 791 ft | 131 kts | 270° |
| 2026-05-05 22:16 | 41.76980 | -88.48949 | 1121 ft | 169 kts | 271° |
| 2026-05-05 22:16 | 41.76919 | -88.50658 | 1611 ft | 199 kts | 270° |
| 2026-05-05 22:16 | 41.76797 | -88.52576 | 2403 ft | 216 kts | 264° |
| 2026-05-05 22:16 | 41.76281 | -88.54514 | 3309 ft | 234 kts | 240° |
| 2026-05-05 22:17 | 41.74990 | -88.55854 | 4223 ft | 248 kts | 201° |
| 2026-05-05 22:17 | 41.73293 | -88.55917 | 5237 ft | 250 kts | 171° |
| 2026-05-05 22:17 | 41.71628 | -88.55316 | 6131 ft | 254 kts | 164° |
| 2026-05-05 22:17 | 41.69941 | -88.54529 | 6986 ft | 259 kts | 163° |
| 2026-05-05 22:18 | 41.68279 | -88.53702 | 7934 ft | 258 kts | 163° |
| 2026-05-05 22:18 | 41.66626 | -88.52868 | 8845 ft | 258 kts | 165° |
| 2026-05-05 22:18 | 41.64943 | -88.52028 | 9689 ft | 261 kts | 166° |
| 2026-05-05 22:18 | 41.63256 | -88.51183 | 10543 ft | 262 kts | 166° |
| 2026-05-05 22:19 | 41.61541 | -88.50323 | 11321 ft | 267 kts | 167° |
| 2026-05-05 22:19 | 41.59793 | -88.49448 | 12064 ft | 272 kts | 167° |
| 2026-05-05 22:19 | 41.58011 | -88.48555 | 12828 ft | 276 kts | 167° |
| 2026-05-05 22:19 | 41.56213 | -88.47650 | 13587 ft | 279 kts | 167° |
| 2026-05-05 22:20 | 41.54386 | -88.46736 | 14346 ft | 282 kts | 168° |
| 2026-05-05 22:20 | 41.52560 | -88.45820 | 15104 ft | 284 kts | 168° |
| 2026-05-05 22:20 | 41.50705 | -88.44891 | 15819 ft | 287 kts | 169° |
| 2026-05-05 22:20 | 41.48821 | -88.43946 | 16547 ft | 290 kts | 169° |
| 2026-05-05 22:21 | 41.46946 | -88.43012 | 17305 ft | 290 kts | 169° |
| 2026-05-05 22:21 | 41.45058 | -88.42066 | 17959 ft | 294 kts | 170° |
| 2026-05-05 22:21 | 41.43139 | -88.41106 | 18651 ft | 295 kts | 170° |
| 2026-05-05 22:21 | 41.41214 | -88.40150 | 19378 ft | 295 kts | 171° |
| 2026-05-05 22:22 | 41.39286 | -88.39185 | 20112 ft | 295 kts | 171° |
| 2026-05-05 22:22 | 41.37368 | -88.38230 | 20737 ft | 297 kts | 171° |
| 2026-05-05 22:22 | 41.35437 | -88.37271 | 21276 ft | 302 kts | 171° |
| 2026-05-05 22:22 | 41.33455 | -88.36282 | 21836 ft | 305 kts | 171° |
| 2026-05-05 22:23 | 41.31467 | -88.35293 | 22450 ft | 306 kts | 171° |
| 2026-05-05 22:23 | 41.29488 | -88.34309 | 23049 ft | 307 kts | 172° |
| 2026-05-05 22:23 | 41.27467 | -88.33307 | 23547 ft | 311 kts | 172° |
| 2026-05-05 22:23 | 41.25440 | -88.32304 | 24040 ft | 315 kts | 172° |
| 2026-05-05 22:24 | 41.23357 | -88.31269 | 24583 ft | 317 kts | 172° |
| 2026-05-05 22:24 | 41.21290 | -88.30241 | 25118 ft | 319 kts | 172° |
| 2026-05-05 22:24 | 41.19298 | -88.29257 | 25527 ft | 324 kts | 172° |
| 2026-05-05 22:24 | 41.17157 | -88.28197 | 26003 ft | 328 kts | 172° |
| 2026-05-05 22:25 | 41.15029 | -88.27142 | 26558 ft | 329 kts | 172° |
| 2026-05-05 22:25 | 41.12880 | -88.26081 | 27010 ft | 332 kts | 172° |
| 2026-05-05 22:25 | 41.10695 | -88.25000 | 27485 ft | 335 kts | 172° |
| 2026-05-05 22:25 | 41.08514 | -88.23922 | 27949 ft | 337 kts | 173° |
| 2026-05-05 22:26 | 41.06283 | -88.22824 | 28286 ft | 342 kts | 172° |
| 2026-05-05 22:26 | 41.04053 | -88.21724 | 28672 ft | 345 kts | 172° |
| 2026-05-05 22:26 | 41.01807 | -88.20617 | 29072 ft | 347 kts | 172° |
| 2026-05-05 22:26 | 40.99521 | -88.19484 | 29533 ft | 348 kts | 173° |
| 2026-05-05 22:27 | 40.97277 | -88.18385 | 29882 ft | 350 kts | 173° |
| 2026-05-05 22:27 | 40.94979 | -88.17257 | 30157 ft | 355 kts | 173° |
| 2026-05-05 22:27 | 40.92647 | -88.16107 | 30442 ft | 359 kts | 173° |
| 2026-05-05 22:27 | 40.90291 | -88.14949 | 30752 ft | 361 kts | 173° |
| 2026-05-05 22:28 | 40.87918 | -88.13780 | 31170 ft | 361 kts | 174° |
| 2026-05-05 22:28 | 40.85535 | -88.12611 | 31503 ft | 362 kts | 174° |
| 2026-05-05 22:28 | 40.83176 | -88.11462 | 31706 ft | 368 kts | 175° |
| 2026-05-05 22:28 | 40.80743 | -88.10268 | 32011 ft | 370 kts | 175° |
| 2026-05-05 22:29 | 40.78336 | -88.09090 | 32312 ft | 371 kts | 175° |
| 2026-05-05 22:29 | 40.75911 | -88.07908 | 32594 ft | 373 kts | 176° |
| 2026-05-05 22:29 | 40.73559 | -88.06754 | 32893 ft | 374 kts | 176° |
| 2026-05-05 22:29 | 40.71108 | -88.05561 | 33197 ft | 375 kts | 176° |
| 2026-05-05 22:30 | 40.68657 | -88.04364 | 33465 ft | 377 kts | 176° |
| 2026-05-05 22:30 | 40.66188 | -88.03162 | 33795 ft | 378 kts | 177° |
| 2026-05-05 22:30 | 40.63712 | -88.01962 | 34101 ft | 380 kts | 177° |
| 2026-05-05 22:30 | 40.61271 | -88.00772 | 34531 ft | 379 kts | 177° |
| 2026-05-05 22:31 | 40.58791 | -87.99568 | 34845 ft | 382 kts | 177° |
| 2026-05-05 22:31 | 40.53657 | -87.97099 | 34880 ft | 404 kts | 176° |
| 2026-05-05 22:32 | 40.48327 | -87.94504 | 34880 ft | 415 kts | 175° |
| 2026-05-05 22:32 | 40.42843 | -87.91851 | 34880 ft | 424 kts | 175° |
| 2026-05-05 22:33 | 40.37245 | -87.89143 | 34873 ft | 432 kts | 175° |
| 2026-05-05 22:33 | 40.31565 | -87.86481 | 34866 ft | 427 kts | 182° |
| 2026-05-05 22:33 | 40.28711 | -87.85850 | 34890 ft | 416 kts | 187° |
| 2026-05-05 22:34 | 40.25808 | -87.85287 | 34886 ft | 420 kts | 187° |
| 2026-05-05 22:34 | 40.19974 | -87.84141 | 34885 ft | 426 kts | 187° |
| 2026-05-05 22:35 | 40.14091 | -87.82986 | 34874 ft | 431 kts | 186° |
| 2026-05-05 22:35 | 40.08105 | -87.81805 | 34879 ft | 435 kts | 186° |
| 2026-05-05 22:36 | 40.02082 | -87.80623 | 34874 ft | 439 kts | 186° |
| 2026-05-05 22:36 | 39.96122 | -87.79457 | 34879 ft | 442 kts | 186° |
| 2026-05-05 22:37 | 39.90034 | -87.78268 | 34869 ft | 445 kts | 186° |
| 2026-05-05 22:37 | 39.83858 | -87.77061 | 34859 ft | 446 kts | 186° |
| 2026-05-05 22:38 | 39.77695 | -87.75862 | 34858 ft | 449 kts | 186° |
| 2026-05-05 22:38 | 39.71542 | -87.74667 | 34864 ft | 450 kts | 186° |
| 2026-05-05 22:39 | 39.65317 | -87.73459 | 34858 ft | 451 kts | 186° |
| 2026-05-05 22:39 | 39.59092 | -87.72250 | 34865 ft | 452 kts | 186° |
| 2026-05-05 22:40 | 39.52890 | -87.71051 | 34866 ft | 453 kts | 185° |
| 2026-05-05 22:40 | 39.46632 | -87.69843 | 34866 ft | 454 kts | 185° |
| 2026-05-05 22:41 | 39.40355 | -87.68632 | 34871 ft | 455 kts | 186° |
| 2026-05-05 22:41 | 39.34110 | -87.67432 | 34869 ft | 456 kts | 185° |
| 2026-05-05 22:42 | 39.27808 | -87.66225 | 34866 ft | 456 kts | 185° |
| 2026-05-05 22:42 | 39.21514 | -87.65018 | 34861 ft | 457 kts | 185° |
| 2026-05-05 22:43 | 39.15232 | -87.63816 | 34863 ft | 458 kts | 185° |
| 2026-05-05 22:43 | 39.08921 | -87.62611 | 34862 ft | 458 kts | 185° |
| 2026-05-05 22:44 | 39.02604 | -87.61406 | 34861 ft | 458 kts | 185° |
| 2026-05-05 22:44 | 38.96277 | -87.60205 | 34864 ft | 459 kts | 185° |
| 2026-05-05 22:45 | 38.89951 | -87.59003 | 34860 ft | 459 kts | 185° |
| 2026-05-05 22:45 | 38.83574 | -87.57793 | 34858 ft | 460 kts | 185° |
| 2026-05-05 22:46 | 38.77271 | -87.56602 | 34860 ft | 460 kts | 185° |
| 2026-05-05 22:46 | 38.70918 | -87.55400 | 34861 ft | 460 kts | 185° |
| 2026-05-05 22:47 | 38.64549 | -87.54203 | 34855 ft | 461 kts | 185° |
| 2026-05-05 22:47 | 38.58208 | -87.53008 | 34849 ft | 461 kts | 185° |
| 2026-05-05 22:48 | 38.51833 | -87.51812 | 34841 ft | 462 kts | 185° |
| 2026-05-05 22:48 | 38.45441 | -87.50611 | 34840 ft | 464 kts | 184° |
| 2026-05-05 22:49 | 38.39357 | -87.49474 | 34834 ft | 464 kts | 184° |
| 2026-05-05 22:49 | 38.33178 | -87.48320 | 34839 ft | 465 kts | 184° |
| 2026-05-05 22:50 | 38.26765 | -87.47123 | 34834 ft | 466 kts | 184° |
| 2026-05-05 22:50 | 38.20313 | -87.45921 | 34834 ft | 467 kts | 184° |
| 2026-05-05 22:51 | 38.13861 | -87.44720 | 34839 ft | 468 kts | 184° |
| 2026-05-05 22:51 | 38.07362 | -87.43514 | 34840 ft | 469 kts | 184° |
| 2026-05-05 22:51 | 38.04149 | -87.42925 | 34522 ft | 474 kts | 184° |
| 2026-05-05 22:52 | 38.00893 | -87.42253 | 33998 ft | 466 kts | 180° |
| 2026-05-05 22:52 | 37.97801 | -87.41149 | 33280 ft | 468 kts | 172° |
| 2026-05-05 22:52 | 37.94776 | -87.39545 | 32612 ft | 469 kts | 166° |
| 2026-05-05 22:52 | 37.91821 | -87.37907 | 32027 ft | 463 kts | 167° |
| 2026-05-05 22:53 | 37.88855 | -87.36301 | 31451 ft | 459 kts | 167° |
| 2026-05-05 22:53 | 37.85921 | -87.34714 | 30904 ft | 456 kts | 168° |
| 2026-05-05 22:53 | 37.83011 | -87.33154 | 30358 ft | 452 kts | 167° |
| 2026-05-05 22:53 | 37.80103 | -87.31583 | 29838 ft | 447 kts | 167° |
| 2026-05-05 22:54 | 37.77285 | -87.30078 | 29331 ft | 442 kts | 167° |
| 2026-05-05 22:54 | 37.74470 | -87.28561 | 28834 ft | 437 kts | 167° |
| 2026-05-05 22:54 | 37.71665 | -87.27058 | 28347 ft | 431 kts | 167° |
| 2026-05-05 22:54 | 37.68930 | -87.25593 | 27877 ft | 425 kts | 166° |
| 2026-05-05 22:55 | 37.66226 | -87.24152 | 27419 ft | 424 kts | 166° |
| 2026-05-05 22:55 | 37.63608 | -87.22750 | 26968 ft | 430 kts | 166° |
| 2026-05-05 22:55 | 37.60831 | -87.21274 | 26482 ft | 435 kts | 166° |
| 2026-05-05 22:55 | 37.58011 | -87.19768 | 25989 ft | 439 kts | 165° |
| 2026-05-05 22:56 | 37.55212 | -87.18272 | 25497 ft | 441 kts | 165° |
| 2026-05-05 22:56 | 37.52348 | -87.16746 | 24997 ft | 443 kts | 165° |
| 2026-05-05 22:56 | 37.49517 | -87.15236 | 24498 ft | 443 kts | 165° |
| 2026-05-05 22:56 | 37.46672 | -87.13720 | 23996 ft | 443 kts | 164° |
| 2026-05-05 22:57 | 37.43840 | -87.12219 | 23506 ft | 441 kts | 164° |
| 2026-05-05 22:57 | 37.41018 | -87.10713 | 23018 ft | 439 kts | 164° |
| 2026-05-05 22:57 | 37.38208 | -87.09292 | 22837 ft | 425 kts | 168° |
| 2026-05-05 22:57 | 37.35409 | -87.08373 | 22816 ft | 405 kts | 177° |
| 2026-05-05 22:58 | 37.32653 | -87.07957 | 22609 ft | 392 kts | 185° |
| 2026-05-05 22:58 | 37.29974 | -87.08025 | 22406 ft | 382 kts | 190° |
| 2026-05-05 22:58 | 37.27310 | -87.08136 | 22195 ft | 379 kts | 189° |
| 2026-05-05 22:58 | 37.24681 | -87.08243 | 21987 ft | 375 kts | 189° |
| 2026-05-05 22:59 | 37.22082 | -87.08341 | 21783 ft | 371 kts | 189° |
| 2026-05-05 22:59 | 37.19511 | -87.08439 | 21579 ft | 368 kts | 189° |
| 2026-05-05 22:59 | 37.16954 | -87.08536 | 21377 ft | 365 kts | 189° |
| 2026-05-05 22:59 | 37.14415 | -87.08630 | 21173 ft | 362 kts | 189° |
| 2026-05-05 23:00 | 37.09399 | -87.08818 | 20778 ft | 357 kts | 189° |
| 2026-05-05 23:00 | 37.06921 | -87.08912 | 20585 ft | 357 kts | 189° |
| 2026-05-05 23:00 | 37.04442 | -87.09003 | 20392 ft | 358 kts | 189° |
| 2026-05-05 23:01 | 37.01935 | -87.09096 | 20191 ft | 358 kts | 189° |
| 2026-05-05 23:01 | 36.99442 | -87.09193 | 19983 ft | 359 kts | 189° |
| 2026-05-05 23:01 | 36.96936 | -87.09283 | 19774 ft | 359 kts | 189° |
| 2026-05-05 23:01 | 36.94440 | -87.09373 | 19568 ft | 358 kts | 189° |
| 2026-05-05 23:02 | 36.91952 | -87.09467 | 19366 ft | 358 kts | 189° |
| 2026-05-05 23:02 | 36.89462 | -87.09556 | 19162 ft | 357 kts | 189° |
| 2026-05-05 23:02 | 36.86940 | -87.09650 | 18953 ft | 357 kts | 189° |
| 2026-05-05 23:02 | 36.84463 | -87.09730 | 18847 ft | 354 kts | 187° |
| 2026-05-05 23:03 | 36.82008 | -87.09443 | 18828 ft | 356 kts | 176° |
| 2026-05-05 23:03 | 36.79606 | -87.08619 | 18827 ft | 357 kts | 166° |
| 2026-05-05 23:03 | 36.77378 | -87.07314 | 18830 ft | 358 kts | 158° |
| 2026-05-05 23:03 | 36.75162 | -87.05843 | 18390 ft | 367 kts | 160° |
| 2026-05-05 23:04 | 36.72838 | -87.04395 | 17520 ft | 385 kts | 160° |
| 2026-05-05 23:04 | 36.70430 | -87.02903 | 16728 ft | 380 kts | 160° |
| 2026-05-05 23:04 | 36.68115 | -87.01474 | 15750 ft | 376 kts | 160° |
| 2026-05-05 23:04 | 36.65790 | -87.00039 | 14775 ft | 373 kts | 159° |
| 2026-05-05 23:05 | 36.63579 | -86.98275 | 13789 ft | 376 kts | 148° |
| 2026-05-05 23:05 | 36.61662 | -86.96092 | 12880 ft | 376 kts | 137° |
| 2026-05-05 23:05 | 36.60030 | -86.93627 | 12009 ft | 373 kts | 130° |
| 2026-05-05 23:05 | 36.58705 | -86.90853 | 11124 ft | 372 kts | 120° |
| 2026-05-05 23:06 | 36.57789 | -86.87876 | 10283 ft | 368 kts | 110° |
| 2026-05-05 23:06 | 36.57261 | -86.84804 | 9458 ft | 363 kts | 104° |
| 2026-05-05 23:06 | 36.56576 | -86.81852 | 8640 ft | 353 kts | 114° |
| 2026-05-05 23:06 | 36.55769 | -86.78998 | 7812 ft | 347 kts | 113° |
| 2026-05-05 23:07 | 36.54979 | -86.76219 | 7117 ft | 338 kts | 114° |
| 2026-05-05 23:07 | 36.54285 | -86.73554 | 6974 ft | 313 kts | 111° |
| 2026-05-05 23:07 | 36.53699 | -86.71054 | 6950 ft | 287 kts | 111° |
| 2026-05-05 23:07 | 36.53160 | -86.68777 | 6954 ft | 269 kts | 112° |
| 2026-05-05 23:08 | 36.52639 | -86.66592 | 6958 ft | 261 kts | 112° |
| 2026-05-05 23:08 | 36.52122 | -86.64433 | 6962 ft | 255 kts | 112° |
| 2026-05-05 23:08 | 36.51472 | -86.62426 | 6766 ft | 251 kts | 127° |
| 2026-05-05 23:08 | 36.50455 | -86.60674 | 6412 ft | 247 kts | 142° |
| 2026-05-05 23:09 | 36.49153 | -86.59321 | 6050 ft | 242 kts | 155° |
| 2026-05-05 23:09 | 36.47663 | -86.58408 | 5694 ft | 238 kts | 165° |
| 2026-05-05 23:09 | 36.46115 | -86.57649 | 5327 ft | 238 kts | 165° |
| 2026-05-05 23:09 | 36.44587 | -86.56920 | 4954 ft | 234 kts | 166° |
| 2026-05-05 23:10 | 36.43040 | -86.56435 | 4589 ft | 224 kts | 178° |
| 2026-05-05 23:10 | 36.41553 | -86.56562 | 4214 ft | 212 kts | 202° |
| 2026-05-05 23:10 | 36.40226 | -86.57301 | 4009 ft | 200 kts | 201° |
| 2026-05-05 23:10 | 36.38961 | -86.57864 | 3991 ft | 186 kts | 200° |
| 2026-05-05 23:11 | 36.37795 | -86.58372 | 3985 ft | 173 kts | 200° |
| 2026-05-05 23:11 | 36.36655 | -86.58844 | 3988 ft | 166 kts | 200° |
| 2026-05-05 23:11 | 36.35577 | -86.59282 | 3987 ft | 162 kts | 200° |
| 2026-05-05 23:11 | 36.34463 | -86.59732 | 3999 ft | 174 kts | 200° |
| 2026-05-05 23:12 | 36.33257 | -86.60216 | 4013 ft | 193 kts | 199° |
| 2026-05-05 23:12 | 36.31984 | -86.60722 | 3995 ft | 187 kts | 199° |
| 2026-05-05 23:12 | 36.30757 | -86.61204 | 3953 ft | 182 kts | 199° |
| 2026-05-05 23:12 | 36.29562 | -86.61680 | 3734 ft | 176 kts | 199° |
| 2026-05-05 23:13 | 36.28418 | -86.62131 | 3524 ft | 171 kts | 198° |
| 2026-05-05 23:13 | 36.27290 | -86.62575 | 3314 ft | 166 kts | 198° |
| 2026-05-05 23:13 | 36.26209 | -86.63000 | 3107 ft | 162 kts | 197° |
| 2026-05-05 23:13 | 36.25137 | -86.63419 | 2898 ft | 159 kts | 198° |
| 2026-05-05 23:14 | 36.24098 | -86.63823 | 2694 ft | 151 kts | 198° |
| 2026-05-05 23:14 | 36.23155 | -86.64195 | 2588 ft | 137 kts | 197° |
| 2026-05-05 23:14 | 36.22268 | -86.64544 | 2368 ft | 129 kts | 197° |
| 2026-05-05 23:14 | 36.21434 | -86.64871 | 2170 ft | 121 kts | 197° |
| 2026-05-05 23:15 | 36.20638 | -86.65180 | 2008 ft | 117 kts | 196° |
| 2026-05-05 23:15 | 36.19868 | -86.65480 | 1845 ft | 113 kts | 195° |
| 2026-05-05 23:15 | 36.19108 | -86.65776 | 1691 ft | 118 kts | 195° |
| 2026-05-05 23:15 | 36.18323 | -86.66087 | 1550 ft | 126 kts | 196° |
| 2026-05-05 23:16 | 36.17510 | -86.66402 | 1376 ft | 118 kts | 197° |
| 2026-05-05 23:16 | 36.16743 | -86.66702 | 1218 ft | 111 kts | 195° |
| 2026-05-05 23:16 | 36.16029 | -86.66991 | 1072 ft | 107 kts | 197° |
| 2026-05-05 23:16 | 36.15297 | -86.67276 | 965 ft | 106 kts | 195° |
| 2026-05-05 23:17 | 36.14606 | -86.67539 | 806 ft | 103 kts | 196° |
| 2026-05-05 23:17 | 36.13934 | -86.67797 | 668 ft | 99 kts | 195° |
| 2026-05-05 23:17 | 36.13304 | -86.68047 | 604 ft | 85 kts | 197° |
| 2026-05-05 23:17 | 36.12811 | -86.68237 | 603 ft | 62 kts | 197° |
| 2026-05-05 23:18 | 36.12439 | -86.68384 | 603 ft | 49 kts | 197° |
| 2026-05-05 23:18 | 36.12251 | -86.68416 | 603 ft | 19 kts | 151° |
| 2026-05-05 23:18 | 36.12165 | -86.68315 | 603 ft | 17 kts | 68° |
| 2026-05-05 23:18 | 36.12277 | -86.68244 | 603 ft | 21 kts | 17° |
| 2026-05-05 23:19 | 36.12420 | -86.68193 | 603 ft | 21 kts | 14° |
| 2026-05-05 23:19 | 36.12568 | -86.68140 | 603 ft | 20 kts | 17° |
| 2026-05-05 23:19 | 36.12692 | -86.68095 | 603 ft | 20 kts | 15° |
| 2026-05-05 23:19 | 36.12717 | -86.67991 | 603 ft | 18 kts | 127° |
| 2026-05-05 23:20 | 36.12618 | -86.67859 | 603 ft | 20 kts | 135° |
| 2026-05-05 23:20 | 36.12523 | -86.67731 | 603 ft | 24 kts | 131° |
| 2026-05-05 23:20 | 36.12398 | -86.67570 | 603 ft | 25 kts | 134° |
| 2026-05-05 23:20 | 36.12289 | -86.67429 | 603 ft | 20 kts | 136° |
| 2026-05-05 23:21 | 36.12184 | -86.67398 | 603 ft | 16 kts | 181° |
| 2026-05-05 23:21 | 36.12077 | -86.67416 | 603 ft | 11 kts | 231° |
| 2026-05-05 23:21 | 36.12069 | -86.67442 | 603 ft | 0 kts | 269° |